createdAt,value
2016-10-30T00:00:48.193Z,8.5
2016-10-30T00:01:48.228Z,8.62
2016-10-30T00:02:48.467Z,8.51
2016-10-30T00:03:48.191Z,8.57
2016-10-30T00:04:48.163Z,8.57
2016-10-30T00:05:48.375Z,8.58
2016-10-30T00:06:48.198Z,8.54
2016-10-30T00:07:48.188Z,8.63
2016-10-30T00:08:48.481Z,8.58
2016-10-30T00:09:48.307Z,8.62
2016-10-30T00:10:48.457Z,8.63
2016-10-30T00:11:48.294Z,8.58
2016-10-30T00:12:48.249Z,8.57
2016-10-30T00:13:48.269Z,8.57
2016-10-30T00:14:48.342Z,8.53
2016-10-30T00:15:48.198Z,8.62
2016-10-30T00:16:48.388Z,8.71
2016-10-30T00:17:48.367Z,8.73
2016-10-30T00:18:48.249Z,8.71
2016-10-30T00:19:48.492Z,8.65
2016-10-30T00:20:48.353Z,8.55
2016-10-30T00:21:48.358Z,8.6
2016-10-30T00:22:48.232Z,8.58
2016-10-30T00:23:48.303Z,8.72
2016-10-30T00:24:48.212Z,8.65
2016-10-30T00:25:48.274Z,8.76
2016-10-30T00:26:48.214Z,8.65
2016-10-30T00:27:48.275Z,8.71
2016-10-30T00:28:48.327Z,8.71
2016-10-30T00:29:48.391Z,8.81
2016-10-30T00:30:48.288Z,8.72
2016-10-30T00:31:48.231Z,8.58
2016-10-30T00:32:48.269Z,8.81
2016-10-30T00:33:48.195Z,8.73
2016-10-30T00:34:48.353Z,8.76
2016-10-30T00:35:48.215Z,8.88
2016-10-30T00:36:48.361Z,8.81
2016-10-30T00:37:48.243Z,8.83
2016-10-30T00:38:48.416Z,8.83
2016-10-30T00:39:48.354Z,8.83
2016-10-30T00:40:48.201Z,8.83
2016-10-30T00:41:48.286Z,8.9
2016-10-30T00:42:48.227Z,8.73
2016-10-30T00:43:48.246Z,8.76
2016-10-30T00:44:48.294Z,8.84
2016-10-30T00:45:48.307Z,8.87
2016-10-30T00:46:48.303Z,8.78
2016-10-30T00:47:48.229Z,8.94
2016-10-30T00:48:48.361Z,8.84
2016-10-30T00:49:48.224Z,8.86
2016-10-30T00:50:48.298Z,8.73
2016-10-30T00:51:48.246Z,8.84
2016-10-30T00:52:48.902Z,8.88
2016-10-30T00:53:48.368Z,8.93
2016-10-30T00:54:48.208Z,8.94
2016-10-30T00:55:48.420Z,8.93
2016-10-30T00:56:48.238Z,8.93
2016-10-30T00:57:48.479Z,8.84
2016-10-30T00:58:48.232Z,8.94
2016-10-30T00:59:48.255Z,8.96
2016-10-30T01:00:48.234Z,8.97
2016-10-30T01:01:48.255Z,8.94
2016-10-30T01:02:48.250Z,8.91
2016-10-30T01:03:48.359Z,8.9
2016-10-30T01:04:48.228Z,8.97
2016-10-30T01:05:48.226Z,8.96
2016-10-30T01:06:48.231Z,8.93
2016-10-30T01:07:48.337Z,8.99
2016-10-30T01:08:48.251Z,8.81
2016-10-30T01:09:48.234Z,8.88
2016-10-30T01:10:48.235Z,8.84
2016-10-30T01:11:48.275Z,8.91
2016-10-30T01:12:48.233Z,8.99
2016-10-30T01:13:48.223Z,8.94
2016-10-30T01:14:48.231Z,8.91
2016-10-30T01:15:48.238Z,8.91
2016-10-30T01:16:48.250Z,8.86
2016-10-30T01:17:48.234Z,8.9
2016-10-30T01:18:48.240Z,8.87
2016-10-30T01:19:48.237Z,8.88
2016-10-30T01:20:48.370Z,8.91
2016-10-30T01:21:48.285Z,8.79
2016-10-30T01:22:48.250Z,8.81
2016-10-30T01:23:48.224Z,8.78
2016-10-30T01:24:48.244Z,8.73
2016-10-30T01:25:48.339Z,8.81
2016-10-30T01:26:48.244Z,8.83
2016-10-30T01:27:48.259Z,8.83
2016-10-30T01:28:48.257Z,8.66
2016-10-30T01:29:48.254Z,8.71
2016-10-30T01:30:48.255Z,8.71
2016-10-30T01:31:48.278Z,8.71
2016-10-30T01:32:48.230Z,8.69
2016-10-30T01:33:48.470Z,8.58
2016-10-30T01:34:48.230Z,8.72
2016-10-30T01:35:48.295Z,8.63
2016-10-30T01:36:48.260Z,8.57
2016-10-30T01:37:48.234Z,8.65
2016-10-30T01:38:48.240Z,8.5
2016-10-30T01:39:48.256Z,8.54
2016-10-30T01:40:48.442Z,8.6
2016-10-30T01:41:48.279Z,8.5
2016-10-30T01:42:48.298Z,8.53
2016-10-30T01:43:48.408Z,8.53
2016-10-30T01:44:48.258Z,8.48
2016-10-30T01:45:48.329Z,8.53
2016-10-30T01:46:48.301Z,8.45
2016-10-30T01:47:48.256Z,8.57
2016-10-30T01:48:48.275Z,8.3
2016-10-30T01:49:48.298Z,8.55
2016-10-30T01:50:48.651Z,8.53
2016-10-30T01:51:48.281Z,8.58
2016-10-30T01:52:48.259Z,8.45
2016-10-30T01:53:48.434Z,8.57
2016-10-30T01:54:48.264Z,8.62
2016-10-30T01:55:48.262Z,8.5
2016-10-30T01:56:48.284Z,8.54
2016-10-30T01:57:48.284Z,8.58
2016-10-30T01:58:48.266Z,8.55
2016-10-30T01:59:48.279Z,8.58
2016-10-30T02:00:48.300Z,8.71
2016-10-30T02:01:48.292Z,8.63
2016-10-30T02:02:48.290Z,8.63
2016-10-30T02:03:48.288Z,8.57
2016-10-30T02:04:48.291Z,8.6
2016-10-30T02:05:48.285Z,8.54
2016-10-30T02:06:48.295Z,8.55
2016-10-30T02:07:48.275Z,8.57
2016-10-30T02:08:48.308Z,8.53
2016-10-30T02:09:48.286Z,8.44
2016-10-30T02:10:48.339Z,8.37
2016-10-30T02:11:48.419Z,8.47
2016-10-30T02:12:48.326Z,8.47
2016-10-30T02:13:48.396Z,8.39
2016-10-30T02:14:48.320Z,8.28
2016-10-30T02:15:48.307Z,8.21
2016-10-30T02:16:48.557Z,8.26
2016-10-30T02:17:48.428Z,8.17
2016-10-30T02:18:48.323Z,8.17
2016-10-30T02:19:48.371Z,8.21
2016-10-30T02:20:48.440Z,8.14
2016-10-30T02:21:48.327Z,8.11
2016-10-30T02:22:48.409Z,8.07
2016-10-30T02:23:48.297Z,7.94
2016-10-30T02:24:48.335Z,8.03
2016-10-30T02:25:48.317Z,7.97
2016-10-30T02:26:48.447Z,8
2016-10-30T02:27:48.323Z,7.93
2016-10-30T02:28:48.304Z,7.93
2016-10-30T02:29:48.294Z,7.82
2016-10-30T02:30:48.664Z,7.82
2016-10-30T02:31:48.295Z,7.79
2016-10-30T02:32:48.534Z,7.74
2016-10-30T02:33:48.368Z,7.71
2016-10-30T02:34:48.291Z,7.74
2016-10-30T02:35:48.280Z,7.63
2016-10-30T02:36:48.432Z,7.67
2016-10-30T02:37:48.302Z,7.56
2016-10-30T02:38:48.439Z,7.66
2016-10-30T02:39:48.393Z,7.45
2016-10-30T02:40:48.327Z,7.59
2016-10-30T02:41:48.327Z,7.45
2016-10-30T02:42:48.313Z,7.49
2016-10-30T02:43:48.323Z,7.58
2016-10-30T02:44:48.371Z,7.53
2016-10-30T02:45:48.359Z,7.41
2016-10-30T02:46:48.375Z,7.41
2016-10-30T02:47:48.494Z,7.47
2016-10-30T02:48:48.411Z,7.41
2016-10-30T02:49:48.557Z,7.34
2016-10-30T02:50:48.467Z,7.24
2016-10-30T02:51:48.888Z,7.47
2016-10-30T02:52:49.552Z,7.34
2016-10-30T02:53:48.454Z,7.27
2016-10-30T02:54:48.499Z,7.17
2016-10-30T02:55:48.456Z,7.24
2016-10-30T02:56:48.497Z,7.19
2016-10-30T02:57:48.483Z,7.29
2016-10-30T02:58:48.649Z,7.23
2016-10-30T02:59:48.693Z,7.23
2016-10-30T03:00:48.531Z,7.24
2016-10-30T03:01:48.467Z,7.29
2016-10-30T03:02:48.816Z,7.22
2016-10-30T03:03:48.399Z,7.22
2016-10-30T03:04:48.886Z,7.27
2016-10-30T03:05:48.599Z,7.2
2016-10-30T03:06:48.684Z,7.09
2016-10-30T03:07:48.346Z,7.27
2016-10-30T03:08:48.345Z,7.22
2016-10-30T03:09:49.120Z,7.23
2016-10-30T03:10:49.696Z,7.22
2016-10-30T03:11:48.876Z,7.22
2016-10-30T03:12:48.356Z,7.34
2016-10-30T03:13:48.362Z,7.2
2016-10-30T03:14:48.676Z,7.22
2016-10-30T03:15:48.595Z,7.24
2016-10-30T03:16:48.396Z,7.29
2016-10-30T03:17:48.378Z,7.41
2016-10-30T03:18:48.354Z,7.27
2016-10-30T03:19:48.341Z,7.26
2016-10-30T03:20:48.754Z,7.37
2016-10-30T03:21:48.366Z,7.31
2016-10-30T03:22:48.335Z,7.32
2016-10-30T03:23:48.859Z,7.35
2016-10-30T03:24:48.339Z,7.37
2016-10-30T03:25:48.500Z,7.4
2016-10-30T03:26:48.350Z,7.37
2016-10-30T03:27:48.342Z,7.38
2016-10-30T03:28:48.332Z,7.4
2016-10-30T03:29:48.348Z,7.47
2016-10-30T03:30:48.339Z,7.38
2016-10-30T03:31:48.371Z,7.4
2016-10-30T03:32:48.359Z,7.5
2016-10-30T03:33:48.759Z,7.49
2016-10-30T03:34:48.350Z,7.41
2016-10-30T03:35:48.338Z,7.49
2016-10-30T03:36:48.361Z,7.41
2016-10-30T03:37:48.308Z,7.32
2016-10-30T03:38:48.463Z,7.42
2016-10-30T03:39:48.371Z,7.49
2016-10-30T03:40:48.342Z,7.49
2016-10-30T03:41:48.530Z,7.47
2016-10-30T03:42:48.359Z,7.55
2016-10-30T03:43:48.353Z,7.41
2016-10-30T03:44:48.358Z,7.47
2016-10-30T03:45:48.439Z,7.59
2016-10-30T03:46:48.374Z,7.56
2016-10-30T03:47:48.410Z,7.49
2016-10-30T03:48:48.362Z,7.52
2016-10-30T03:49:48.553Z,7.52
2016-10-30T03:50:48.351Z,7.52
2016-10-30T03:51:48.438Z,7.5
2016-10-30T03:52:48.633Z,7.42
2016-10-30T03:53:48.356Z,7.4
2016-10-30T03:54:48.375Z,7.45
2016-10-30T03:55:48.361Z,7.38
2016-10-30T03:56:48.412Z,7.42
2016-10-30T03:57:48.345Z,7.29
2016-10-30T03:58:48.557Z,7.34
2016-10-30T03:59:48.710Z,7.34
2016-10-30T04:00:48.393Z,7.45
2016-10-30T04:01:48.540Z,7.5
2016-10-30T04:02:48.367Z,7.34
2016-10-30T04:03:48.522Z,7.49
2016-10-30T04:04:48.390Z,7.49
2016-10-30T04:05:48.348Z,7.47
2016-10-30T04:06:48.513Z,7.45
2016-10-30T04:07:48.378Z,7.45
2016-10-30T04:08:48.634Z,7.59
2016-10-30T04:09:48.368Z,7.5
2016-10-30T04:10:48.368Z,7.49
2016-10-30T04:11:49.049Z,7.55
2016-10-30T04:12:48.390Z,7.56
2016-10-30T04:13:48.543Z,7.52
2016-10-30T04:14:48.392Z,7.56
2016-10-30T04:15:48.380Z,7.55
2016-10-30T04:16:48.406Z,7.69
2016-10-30T04:17:48.615Z,7.63
2016-10-30T04:18:48.382Z,7.77
2016-10-30T04:19:48.380Z,7.66
2016-10-30T04:20:48.725Z,7.6
2016-10-30T04:21:48.400Z,7.62
2016-10-30T04:22:48.500Z,7.63
2016-10-30T04:23:48.598Z,7.62
2016-10-30T04:24:48.398Z,7.56
2016-10-30T04:25:48.398Z,7.71
2016-10-30T04:26:48.392Z,7.77
2016-10-30T04:27:48.373Z,7.59
2016-10-30T04:28:48.407Z,7.67
2016-10-30T04:29:48.392Z,7.67
2016-10-30T04:30:48.646Z,7.5
2016-10-30T04:31:48.392Z,7.66
2016-10-30T04:32:48.373Z,7.74
2016-10-30T04:33:48.570Z,7.72
2016-10-30T04:34:48.486Z,7.59
2016-10-30T04:35:48.402Z,7.58
2016-10-30T04:36:48.488Z,7.62
2016-10-30T04:37:48.367Z,7.67
2016-10-30T04:38:48.398Z,7.67
2016-10-30T04:39:48.379Z,7.72
2016-10-30T04:40:48.399Z,7.59
2016-10-30T04:41:48.504Z,7.71
2016-10-30T04:42:48.384Z,7.77
2016-10-30T04:43:48.559Z,7.63
2016-10-30T04:44:48.397Z,7.74
2016-10-30T04:45:48.392Z,7.59
2016-10-30T04:46:48.528Z,7.77
2016-10-30T04:47:48.424Z,7.74
2016-10-30T04:48:48.405Z,7.74
2016-10-30T04:49:48.518Z,7.79
2016-10-30T04:50:48.409Z,7.89
2016-10-30T04:51:48.882Z,7.81
2016-10-30T04:52:48.424Z,7.74
2016-10-30T04:53:48.412Z,7.67
2016-10-30T04:54:48.538Z,7.75
2016-10-30T04:55:48.397Z,7.66
2016-10-30T04:56:48.434Z,7.66
2016-10-30T04:57:48.630Z,7.75
2016-10-30T04:58:48.517Z,7.63
2016-10-30T04:59:48.432Z,7.74
2016-10-30T05:00:48.409Z,7.55
2016-10-30T05:01:48.409Z,7.6
2016-10-30T05:02:48.613Z,7.55
2016-10-30T05:03:48.671Z,7.5
2016-10-30T05:04:48.459Z,7.58
2016-10-30T05:05:48.476Z,7.53
2016-10-30T05:06:48.421Z,7.58
2016-10-30T05:07:48.427Z,7.6
2016-10-30T05:08:48.431Z,7.55
2016-10-30T05:09:48.422Z,7.45
2016-10-30T05:10:48.426Z,7.49
2016-10-30T05:11:48.421Z,7.42
2016-10-30T05:12:48.711Z,7.44
2016-10-30T05:13:48.429Z,7.53
2016-10-30T05:14:48.459Z,7.45
2016-10-30T05:15:48.407Z,7.53
2016-10-30T05:16:48.414Z,7.34
2016-10-30T05:17:48.457Z,7.38
2016-10-30T05:18:48.661Z,7.35
2016-10-30T05:19:48.592Z,7.37
2016-10-30T05:20:48.496Z,7.4
2016-10-30T05:21:48.446Z,7.34
2016-10-30T05:22:48.515Z,7.34
2016-10-30T05:23:48.539Z,7.2
2016-10-30T05:24:48.431Z,7.27
2016-10-30T05:25:48.470Z,7.38
2016-10-30T05:26:48.440Z,7.27
2016-10-30T05:27:48.548Z,7.38
2016-10-30T05:28:48.541Z,7.24
2016-10-30T05:29:48.451Z,7.37
2016-10-30T05:30:48.570Z,7.27
2016-10-30T05:31:48.477Z,7.23
2016-10-30T05:32:48.494Z,7.2
2016-10-30T05:33:48.500Z,7.19
2016-10-30T05:34:48.624Z,7.12
2016-10-30T05:35:48.453Z,7.23
2016-10-30T05:36:48.674Z,7.19
2016-10-30T05:37:48.494Z,7.13
2016-10-30T05:38:48.433Z,7.07
2016-10-30T05:39:48.445Z,6.99
2016-10-30T05:40:48.488Z,7.01
2016-10-30T05:41:48.440Z,7.08
2016-10-30T05:42:48.437Z,7.05
2016-10-30T05:43:48.431Z,6.98
2016-10-30T05:44:56.418Z,7.02
2016-10-30T05:45:48.441Z,7.09
2016-10-30T05:46:56.079Z,6.98
2016-10-30T05:47:56.344Z,7.04
2016-10-30T05:48:51.697Z,7.05
2016-10-30T05:49:50.782Z,7.19
2016-10-30T05:50:55.485Z,7.12
2016-10-30T05:51:48.531Z,6.94
2016-10-30T05:52:55.726Z,6.87
2016-10-30T05:53:56.226Z,6.95
2016-10-30T05:54:56.637Z,7.01
2016-10-30T05:55:55.353Z,6.97
2016-10-30T05:56:55.500Z,6.97
2016-10-30T05:57:56.156Z,7.01
2016-10-30T05:58:56.371Z,6.95
2016-10-30T05:59:56.074Z,6.98
2016-10-30T06:00:56.829Z,6.83
2016-10-30T06:01:55.753Z,6.89
2016-10-30T06:02:57.491Z,6.94
2016-10-30T06:03:57.446Z,6.84
2016-10-30T06:04:56.440Z,6.91
2016-10-30T06:05:57.477Z,6.97
2016-10-30T06:06:56.681Z,6.98
2016-10-30T06:07:50.860Z,6.9
2016-10-30T06:08:56.624Z,6.91
2016-10-30T06:09:56.362Z,6.98
2016-10-30T06:10:56.873Z,6.84
2016-10-30T06:11:48.479Z,6.89
2016-10-30T06:12:48.559Z,6.89
2016-10-30T06:13:48.457Z,6.84
2016-10-30T06:14:48.471Z,6.97
2016-10-30T06:15:48.505Z,6.97
2016-10-30T06:16:48.466Z,6.73
2016-10-30T06:17:48.487Z,6.86
2016-10-30T06:18:48.466Z,6.94
2016-10-30T06:19:48.473Z,6.9
2016-10-30T06:20:48.538Z,7.04
2016-10-30T06:21:48.531Z,6.79
2016-10-30T06:22:48.554Z,6.97
2016-10-30T06:23:48.520Z,6.97
2016-10-30T06:24:48.568Z,6.97
2016-10-30T06:25:48.523Z,7.01
2016-10-30T06:26:48.511Z,6.89
2016-10-30T06:27:48.530Z,6.91
2016-10-30T06:28:48.477Z,6.99
2016-10-30T06:29:48.498Z,6.99
2016-10-30T06:30:48.491Z,6.86
2016-10-30T06:31:48.483Z,6.94
2016-10-30T06:32:48.537Z,7.04
2016-10-30T06:33:48.486Z,6.95
2016-10-30T06:34:48.474Z,6.84
2016-10-30T06:35:48.508Z,6.94
2016-10-30T06:36:48.501Z,7.07
2016-10-30T06:37:48.509Z,7.09
2016-10-30T06:38:48.498Z,7.07
2016-10-30T06:39:48.480Z,6.94
2016-10-30T06:40:48.493Z,6.94
2016-10-30T06:41:48.498Z,6.94
2016-10-30T06:42:48.522Z,6.87
2016-10-30T06:43:48.482Z,6.81
2016-10-30T06:44:48.492Z,6.94
2016-10-30T06:45:48.467Z,6.89
2016-10-30T06:46:48.473Z,6.97
2016-10-30T06:47:48.480Z,6.91
2016-10-30T06:48:48.487Z,6.9
2016-10-30T06:49:48.493Z,6.84
2016-10-30T06:50:48.473Z,6.9
2016-10-30T06:51:48.485Z,6.97
2016-10-30T06:52:48.502Z,7.01
2016-10-30T06:53:48.457Z,6.97
2016-10-30T06:54:48.519Z,7.04
2016-10-30T06:55:48.495Z,6.86
2016-10-30T06:56:48.495Z,6.9
2016-10-30T06:57:48.505Z,7.01
2016-10-30T06:58:48.495Z,6.97
2016-10-30T06:59:48.491Z,6.9
2016-10-30T07:00:48.498Z,6.89
2016-10-30T07:01:48.515Z,6.84
2016-10-30T07:02:48.522Z,6.91
2016-10-30T07:03:48.491Z,7.01
2016-10-30T07:04:48.483Z,6.98
2016-10-30T07:05:48.511Z,6.94
2016-10-30T07:06:48.525Z,7.07
2016-10-30T07:07:48.519Z,6.9
2016-10-30T07:08:48.495Z,6.97
2016-10-30T07:09:48.517Z,6.89
2016-10-30T07:10:48.490Z,7.17
2016-10-30T07:11:48.514Z,6.99
2016-10-30T07:12:48.525Z,7.07
2016-10-30T07:13:48.509Z,7.19
2016-10-30T07:14:48.496Z,7.26
2016-10-30T07:15:48.495Z,7.29
2016-10-30T07:16:48.549Z,7.24
2016-10-30T07:17:48.530Z,7.31
2016-10-30T07:18:48.505Z,7.42
2016-10-30T07:19:48.512Z,7.52
2016-10-30T07:20:48.520Z,7.5
2016-10-30T07:21:48.512Z,7.52
2016-10-30T07:22:48.560Z,7.56
2016-10-30T07:23:48.526Z,7.66
2016-10-30T07:24:48.518Z,7.72
2016-10-30T07:25:48.528Z,7.71
2016-10-30T07:26:48.531Z,7.9
2016-10-30T07:27:48.567Z,7.9
2016-10-30T07:28:48.560Z,7.99
2016-10-30T07:29:48.533Z,7.99
2016-10-30T07:30:48.514Z,8.07
2016-10-30T07:31:48.524Z,7.97
2016-10-30T07:32:48.557Z,8.22
2016-10-30T07:33:48.572Z,8.15
2016-10-30T07:34:48.552Z,8.33
2016-10-30T07:35:48.504Z,8.35
2016-10-30T07:36:48.542Z,8.42
2016-10-30T07:37:48.522Z,8.54
2016-10-30T07:38:48.516Z,8.54
2016-10-30T07:39:48.507Z,8.54
2016-10-30T07:40:48.536Z,8.65
2016-10-30T07:41:48.528Z,8.75
2016-10-30T07:42:48.574Z,8.73
2016-10-30T07:43:48.524Z,8.81
2016-10-30T07:44:48.566Z,8.93
2016-10-30T07:45:48.567Z,9.05
2016-10-30T07:46:48.588Z,9.02
2016-10-30T07:47:48.560Z,9.2
2016-10-30T07:48:48.587Z,9.21
2016-10-30T07:49:48.578Z,9.31
2016-10-30T07:50:48.564Z,9.42
2016-10-30T07:51:52.431Z,9.45
2016-10-30T07:52:51.256Z,9.57
2016-10-30T07:53:50.796Z,9.64
2016-10-30T07:54:52.098Z,9.7
2016-10-30T07:55:52.107Z,9.63
2016-10-30T07:56:51.038Z,9.75
2016-10-30T07:57:48.639Z,9.76
2016-10-30T07:58:48.626Z,9.82
2016-10-30T07:59:48.568Z,9.86
2016-10-30T08:00:48.566Z,9.81
2016-10-30T08:01:48.594Z,9.86
2016-10-30T08:02:48.606Z,9.96
2016-10-30T08:03:48.587Z,10.01
2016-10-30T08:04:48.568Z,10.1
2016-10-30T08:05:48.572Z,10
2016-10-30T08:06:48.574Z,10
2016-10-30T08:07:48.625Z,10.12
2016-10-30T08:08:48.585Z,10.21
2016-10-30T08:09:48.558Z,10.14
2016-10-30T08:10:48.577Z,10.32
2016-10-30T08:11:48.561Z,10.37
2016-10-30T08:12:48.577Z,10.39
2016-10-30T08:13:48.520Z,10.28
2016-10-30T08:14:48.540Z,10.34
2016-10-30T08:15:48.555Z,10.37
2016-10-30T08:16:52.863Z,10.34
2016-10-30T08:17:50.431Z,10.42
2016-10-30T08:18:50.875Z,10.56
2016-10-30T08:19:48.591Z,10.6
2016-10-30T08:20:48.572Z,10.46
2016-10-30T08:21:48.559Z,10.58
2016-10-30T08:22:48.641Z,10.6
2016-10-30T08:23:48.604Z,10.7
2016-10-30T08:24:48.580Z,10.7
2016-10-30T08:25:48.593Z,10.66
2016-10-30T08:26:48.577Z,10.8
2016-10-30T08:27:48.584Z,10.91
2016-10-30T08:28:48.598Z,10.88
2016-10-30T08:29:48.574Z,10.96
2016-10-30T08:30:49.000Z,10.95
2016-10-30T08:31:49.033Z,10.88
2016-10-30T08:32:48.625Z,11.01
2016-10-30T08:33:49.314Z,11.11
2016-10-30T08:34:48.583Z,10.95
2016-10-30T08:35:48.830Z,11.06
2016-10-30T08:36:48.561Z,10.99
2016-10-30T08:37:49.206Z,11.17
2016-10-30T08:38:48.587Z,11.2
2016-10-30T08:39:48.843Z,11.2
2016-10-30T08:40:48.647Z,11.1
2016-10-30T08:41:48.601Z,11.21
2016-10-30T08:42:48.639Z,11.27
2016-10-30T08:43:48.561Z,11.27
2016-10-30T08:44:48.620Z,11.36
2016-10-30T08:45:48.581Z,11.31
2016-10-30T08:46:48.619Z,11.38
2016-10-30T08:47:48.747Z,11.44
2016-10-30T08:48:48.580Z,11.53
2016-10-30T08:49:48.980Z,11.53
2016-10-30T08:50:48.971Z,11.54
2016-10-30T08:51:48.730Z,11.46
2016-10-30T08:52:48.832Z,11.56
2016-10-30T08:53:48.722Z,11.68
2016-10-30T08:54:49.717Z,11.72
2016-10-30T08:55:48.831Z,11.62
2016-10-30T08:56:48.847Z,11.7
2016-10-30T08:57:48.641Z,11.71
2016-10-30T08:58:49.010Z,11.74
2016-10-30T08:59:48.672Z,11.8
2016-10-30T09:00:49.634Z,11.8
2016-10-30T09:01:48.601Z,11.72
2016-10-30T09:02:48.651Z,11.89
2016-10-30T09:03:48.715Z,11.94
2016-10-30T09:04:48.622Z,11.9
2016-10-30T09:05:48.609Z,11.94
2016-10-30T09:06:48.661Z,12.11
2016-10-30T09:07:48.676Z,12.16
2016-10-30T09:08:48.584Z,12.15
2016-10-30T09:09:48.666Z,12.12
2016-10-30T09:10:48.643Z,12.24
2016-10-30T09:11:48.799Z,12.16
2016-10-30T09:12:48.704Z,12.2
2016-10-30T09:13:48.754Z,12.05
2016-10-30T09:14:48.849Z,12.19
2016-10-30T09:15:48.636Z,12.16
2016-10-30T09:16:48.687Z,12.16
2016-10-30T09:17:48.815Z,12.08
2016-10-30T09:18:49.457Z,12.04
2016-10-30T09:19:48.743Z,12.15
2016-10-30T09:20:48.737Z,12.12
2016-10-30T09:21:48.952Z,12.13
2016-10-30T09:22:49.163Z,12.13
2016-10-30T09:23:48.744Z,12.2
2016-10-30T09:24:49.241Z,12.09
2016-10-30T09:25:48.785Z,12.31
2016-10-30T09:26:48.674Z,12.11
2016-10-30T09:27:49.057Z,12.15
2016-10-30T09:28:48.755Z,12.29
2016-10-30T09:29:48.728Z,12.23
2016-10-30T09:30:48.730Z,12.24
2016-10-30T09:31:49.223Z,12.37
2016-10-30T09:32:48.732Z,12.2
2016-10-30T09:33:48.755Z,12.24
2016-10-30T09:34:48.630Z,12.31
2016-10-30T09:35:48.660Z,12.37
2016-10-30T09:36:48.624Z,12.42
2016-10-30T09:37:48.661Z,12.44
2016-10-30T09:38:48.643Z,12.41
2016-10-30T09:39:48.619Z,12.44
2016-10-30T09:40:48.757Z,12.52
2016-10-30T09:41:48.660Z,12.56
2016-10-30T09:42:48.745Z,12.64
2016-10-30T09:43:48.663Z,12.67
2016-10-30T09:44:48.724Z,12.7
2016-10-30T09:45:48.657Z,12.77
2016-10-30T09:46:48.760Z,12.64
2016-10-30T09:47:48.748Z,12.7
2016-10-30T09:48:49.032Z,12.74
2016-10-30T09:49:48.755Z,12.82
2016-10-30T09:50:49.334Z,12.89
2016-10-30T09:51:49.241Z,12.95
2016-10-30T09:52:49.132Z,12.97
2016-10-30T09:53:48.767Z,13.04
2016-10-30T09:54:48.800Z,12.97
2016-10-30T09:55:48.776Z,13.02
2016-10-30T09:56:48.698Z,13.09
2016-10-30T09:57:48.942Z,13.18
2016-10-30T09:58:48.661Z,13.21
2016-10-30T09:59:48.636Z,13.25
2016-10-30T10:00:48.664Z,13.41
2016-10-30T10:01:48.636Z,13.46
2016-10-30T10:02:49.307Z,13.59
2016-10-30T10:03:48.684Z,13.59
2016-10-30T10:04:48.622Z,13.65
2016-10-30T10:05:48.693Z,13.65
2016-10-30T10:06:48.667Z,13.65
2016-10-30T10:07:48.705Z,13.8
2016-10-30T10:08:48.674Z,13.73
2016-10-30T10:09:48.734Z,13.81
2016-10-30T10:10:48.645Z,13.8
2016-10-30T10:11:48.987Z,13.92
2016-10-30T10:12:48.687Z,13.87
2016-10-30T10:13:48.707Z,13.83
2016-10-30T10:14:49.179Z,13.96
2016-10-30T10:15:48.737Z,13.92
2016-10-30T10:16:48.699Z,14.02
2016-10-30T10:17:48.691Z,14.1
2016-10-30T10:18:48.674Z,14.07
2016-10-30T10:19:48.641Z,13.99
2016-10-30T10:20:48.862Z,14.16
2016-10-30T10:21:49.232Z,14.16
2016-10-30T10:22:48.968Z,14.04
2016-10-30T10:23:48.733Z,14.17
2016-10-30T10:24:50.132Z,14.21
2016-10-30T10:25:48.663Z,14.32
2016-10-30T10:26:49.359Z,14.17
2016-10-30T10:27:48.660Z,14.28
2016-10-30T10:28:49.080Z,14.2
2016-10-30T10:29:48.670Z,14.32
2016-10-30T10:30:48.702Z,14.27
2016-10-30T10:31:48.697Z,14.34
2016-10-30T10:32:48.687Z,14.32
2016-10-30T10:33:48.705Z,14.27
2016-10-30T10:34:48.675Z,14.34
2016-10-30T10:35:48.738Z,14.44
2016-10-30T10:36:48.940Z,14.44
2016-10-30T10:37:49.417Z,14.38
2016-10-30T10:38:48.712Z,14.49
2016-10-30T10:39:48.733Z,14.54
2016-10-30T10:40:48.659Z,14.64
2016-10-30T10:41:48.667Z,14.6
2016-10-30T10:42:49.017Z,14.61
2016-10-30T10:43:48.675Z,14.78
2016-10-30T10:44:48.843Z,14.84
2016-10-30T10:45:48.963Z,14.81
2016-10-30T10:46:48.950Z,14.81
2016-10-30T10:47:48.707Z,14.88
2016-10-30T10:48:48.680Z,14.87
2016-10-30T10:49:48.703Z,14.88
2016-10-30T10:50:48.829Z,14.84
2016-10-30T10:51:49.132Z,14.94
2016-10-30T10:52:49.122Z,14.98
2016-10-30T10:53:49.152Z,14.95
2016-10-30T10:54:49.002Z,15.02
2016-10-30T10:55:49.138Z,14.98
2016-10-30T10:56:48.885Z,14.98
2016-10-30T10:57:48.725Z,14.83
2016-10-30T10:58:49.010Z,14.95
2016-10-30T10:59:48.802Z,14.87
2016-10-30T11:00:48.846Z,14.88
2016-10-30T11:01:48.869Z,14.87
2016-10-30T11:02:49.138Z,14.8
2016-10-30T11:03:48.738Z,14.75
2016-10-30T11:04:48.739Z,14.68
2016-10-30T11:05:48.707Z,14.68
2016-10-30T11:06:48.758Z,14.87
2016-10-30T11:07:48.718Z,14.74
2016-10-30T11:08:48.748Z,14.86
2016-10-30T11:09:48.682Z,14.84
2016-10-30T11:10:48.680Z,14.72
2016-10-30T11:11:48.699Z,14.75
2016-10-30T11:12:48.775Z,14.67
2016-10-30T11:13:48.798Z,14.68
2016-10-30T11:14:48.742Z,14.88
2016-10-30T11:15:48.708Z,14.91
2016-10-30T11:16:48.693Z,14.9
2016-10-30T11:17:48.751Z,14.99
2016-10-30T11:18:48.727Z,15.01
2016-10-30T11:19:48.741Z,15.01
2016-10-30T11:20:49.076Z,14.91
2016-10-30T11:21:48.772Z,14.9
2016-10-30T11:22:48.726Z,14.93
2016-10-30T11:23:48.786Z,14.86
2016-10-30T11:24:48.760Z,14.87
2016-10-30T11:25:48.784Z,14.93
2016-10-30T11:26:48.767Z,14.86
2016-10-30T11:27:48.750Z,14.68
2016-10-30T11:28:49.133Z,14.81
2016-10-30T11:29:49.155Z,14.86
2016-10-30T11:30:48.926Z,14.86
2016-10-30T11:31:49.081Z,14.86
2016-10-30T11:32:48.814Z,14.86
2016-10-30T11:33:48.722Z,14.94
2016-10-30T11:34:48.747Z,15.12
2016-10-30T11:35:48.716Z,15.15
2016-10-30T11:36:48.818Z,15.26
2016-10-30T11:37:48.793Z,15.41
2016-10-30T11:38:48.778Z,15.26
2016-10-30T11:39:48.759Z,15.3
2016-10-30T11:40:48.756Z,15.41
2016-10-30T11:41:49.260Z,15.31
2016-10-30T11:42:48.791Z,15.51
2016-10-30T11:43:48.754Z,15.54
2016-10-30T11:44:48.765Z,15.63
2016-10-30T11:45:48.812Z,15.82
2016-10-30T11:46:48.764Z,15.79
2016-10-30T11:47:48.778Z,15.93
2016-10-30T11:48:48.753Z,16.01
2016-10-30T11:49:48.878Z,16.14
2016-10-30T11:50:48.797Z,16.12
2016-10-30T11:51:48.789Z,16.25
2016-10-30T11:52:48.796Z,16.38
2016-10-30T11:53:48.773Z,16.34
2016-10-30T11:54:48.914Z,16.37
2016-10-30T11:55:50.529Z,16.42
2016-10-30T11:56:48.751Z,16.48
2016-10-30T11:57:48.795Z,16.49
2016-10-30T11:58:48.745Z,16.41
2016-10-30T11:59:48.769Z,16.49
2016-10-30T12:00:48.763Z,16.41
2016-10-30T12:01:48.788Z,16.42
2016-10-30T12:02:49.530Z,16.55
2016-10-30T12:03:49.198Z,16.55
2016-10-30T12:04:49.196Z,16.55
2016-10-30T12:05:51.454Z,16.65
2016-10-30T12:06:48.832Z,16.63
2016-10-30T12:07:48.812Z,16.7
2016-10-30T12:08:49.125Z,16.74
2016-10-30T12:09:50.078Z,16.6
2016-10-30T12:10:48.745Z,16.62
2016-10-30T12:11:48.773Z,16.7
2016-10-30T12:12:48.846Z,16.65
2016-10-30T12:13:48.770Z,16.52
2016-10-30T12:14:48.939Z,16.59
2016-10-30T12:15:48.977Z,16.62
2016-10-30T12:16:48.816Z,16.5
2016-10-30T12:17:48.901Z,16.52
2016-10-30T12:18:48.821Z,16.42
2016-10-30T12:19:48.780Z,16.35
2016-10-30T12:20:48.773Z,16.3
2016-10-30T12:21:48.788Z,16.35
2016-10-30T12:22:48.780Z,16.34
2016-10-30T12:23:50.901Z,16.33
2016-10-30T12:24:48.857Z,16.34
2016-10-30T12:25:48.871Z,16.37
2016-10-30T12:26:49.633Z,16.3
2016-10-30T12:27:48.831Z,16.27
2016-10-30T12:28:48.817Z,16.31
2016-10-30T12:29:48.853Z,16.4
2016-10-30T12:30:49.640Z,16.3
2016-10-30T12:31:48.850Z,16.26
2016-10-30T12:32:48.815Z,16.35
2016-10-30T12:33:48.785Z,16.31
2016-10-30T12:34:48.817Z,16.16
2016-10-30T12:35:49.208Z,16.14
2016-10-30T12:36:49.110Z,16.12
2016-10-30T12:37:48.834Z,16.2
2016-10-30T12:38:48.754Z,16.09
2016-10-30T12:39:49.537Z,16.2
2016-10-30T12:40:49.192Z,16.2
2016-10-30T12:41:48.805Z,16.2
2016-10-30T12:42:48.811Z,16.15
2016-10-30T12:43:48.780Z,16.16
2016-10-30T12:44:48.933Z,16.07
2016-10-30T12:45:48.862Z,16.12
2016-10-30T12:46:48.969Z,16.11
2016-10-30T12:47:48.870Z,16
2016-10-30T12:48:48.776Z,15.96
2016-10-30T12:49:49.455Z,15.97
2016-10-30T12:50:48.792Z,15.94
2016-10-30T12:51:48.816Z,15.93
2016-10-30T12:52:48.863Z,15.89
2016-10-30T12:53:48.847Z,15.97
2016-10-30T12:54:49.142Z,15.88
2016-10-30T12:55:48.817Z,15.92
2016-10-30T12:56:49.099Z,15.86
2016-10-30T12:57:48.834Z,15.89
2016-10-30T12:58:48.943Z,15.92
2016-10-30T12:59:48.981Z,15.89
2016-10-30T13:00:48.850Z,15.93
2016-10-30T13:01:48.988Z,15.84
2016-10-30T13:02:48.831Z,15.88
2016-10-30T13:03:48.815Z,15.81
2016-10-30T13:04:48.904Z,15.84
2016-10-30T13:05:49.385Z,15.76
2016-10-30T13:06:49.314Z,15.86
2016-10-30T13:07:49.158Z,15.85
2016-10-30T13:08:49.312Z,15.78
2016-10-30T13:09:48.844Z,15.76
2016-10-30T13:10:49.373Z,15.76
2016-10-30T13:11:48.820Z,15.76